Time;durP1;ratioP1;P1;durP2;ratioP2;P2;SDS_P1;SDS_P2;PMS_P1;PMS_P2;Temp;Humidity;BMP_temperature;BMP_pressure;BME280_temperature;BME280_humidity;BME280_pressure;Samples;Min_cycle;Max_cycle;Signal;HPM_P1;HPM_P2
2022/01/27 00:03:26;;;;;;;31.00;14.73;;;;;;;-6.27;100.00;96128.81;5033170;28;20112;-60
2022/01/27 00:06:01;;;;;;;28.77;13.90;;;;;;;-6.32;100.00;96138.81;5033857;28;20025;-63
2022/01/27 00:08:31;;;;;;;28.92;13.57;;;;;;;-6.33;100.00;96144.16;5032879;28;20049;-62
2022/01/27 00:11:01;;;;;;;30.38;12.93;;;;;;;-6.32;100.00;96148.41;5033583;28;20033;-62
2022/01/27 00:13:30;;;;;;;30.25;13.48;;;;;;;-6.34;100.00;96145.94;5033733;28;20365;-63
2022/01/27 00:18:48;;;;;;;29.55;13.90;;;;;;;-6.26;100.00;96135.66;5023182;28;20373;-62
2022/01/27 00:21:15;;;;;;;32.20;13.27;;;;;;;-6.26;100.00;96145.28;5032656;28;20112;-62
2022/01/27 00:23:41;;;;;;;29.95;14.90;;;;;;;-6.35;100.00;96149.50;5016018;28;20057;-60
2022/01/27 00:26:11;;;;;;;33.85;14.68;;;;;;;-6.37;100.00;96142.78;5031900;28;20024;-61
2022/01/27 00:28:37;;;;;;;35.00;14.48;;;;;;;-6.42;100.00;96130.97;5033809;28;20059;-62
2022/01/27 00:31:02;;;;;;;28.15;13.60;;;;;;;-6.46;100.00;96144.41;5033746;28;20041;-63
2022/01/27 00:33:27;;;;;;;29.83;14.98;;;;;;;-6.50;100.00;96143.06;5032530;28;20025;-63
2022/01/27 00:35:53;;;;;;;33.22;15.65;;;;;;;-6.40;100.00;96133.47;5033407;28;20048;-63
2022/01/27 00:38:18;;;;;;;32.95;13.55;;;;;;;-6.39;100.00;96139.50;5033089;28;20067;-63
2022/01/27 00:40:44;;;;;;;34.25;14.70;;;;;;;-6.35;100.00;96133.88;5017085;28;20067;-63
2022/01/27 00:43:09;;;;;;;34.40;14.95;;;;;;;-6.30;100.00;96131.66;5035714;28;20036;-63
2022/01/27 00:45:35;;;;;;;32.55;14.77;;;;;;;-6.23;100.00;96135.41;5036128;28;20030;-63
2022/01/27 00:48:03;;;;;;;29.90;14.68;;;;;;;-6.14;100.00;96129.38;5019380;28;20030;-63
2022/01/27 00:50:35;;;;;;;38.55;14.38;;;;;;;-6.06;100.00;96126.09;5036528;28;20096;-63
2022/01/27 00:54:17;;;;;;;53.95;13.35;;;;;;;-5.95;100.00;96122.50;5035759;28;20030;-61
2022/01/27 01:01:43;;;;;;;82.35;14.02;;;;;;;-5.65;100.00;96085.75;5022313;28;20088;-60
2022/01/27 01:04:10;;;;;;;53.60;13.15;;;;;;;-5.59;100.00;96084.38;5030694;28;20749;-63
2022/01/27 01:06:48;;;;;;;57.45;12.73;;;;;;;-5.56;100.00;96089.31;5015536;28;20399;-63
2022/01/27 01:10:08;;;;;;;112.60;14.18;;;;;;;-5.53;100.00;96088.25;5032775;28;20029;-63
2022/01/27 01:14:47;;;;;;;57.53;13.38;;;;;;;-5.47;100.00;96075.44;5031567;28;20036;-63
2022/01/27 01:31:11;;;;;;;71.15;13.15;;;;;;;-5.38;100.00;96058.09;5033575;28;20102;-63
2022/01/27 01:33:39;;;;;;;43.10;12.73;;;;;;;-5.36;100.00;96069.22;5032669;28;20037;-63
2022/01/27 01:36:14;;;;;;;42.72;12.48;;;;;;;-5.36;100.00;96066.59;5033235;28;20046;-63
2022/01/27 01:38:41;;;;;;;43.05;12.90;;;;;;;-5.38;100.00;96066.75;5032953;28;20025;-63
2022/01/27 01:41:07;;;;;;;48.25;12.70;;;;;;;-5.39;100.00;96065.09;5032939;28;20591;-63
2022/01/27 01:43:36;;;;;;;34.20;12.50;;;;;;;-5.39;100.00;96061.66;5033772;28;20116;-62
2022/01/27 01:46:13;;;;;;;35.97;11.25;;;;;;;-5.38;100.00;96061.53;5014311;28;20030;-63
2022/01/27 01:48:41;;;;;;;45.95;11.73;;;;;;;-5.35;100.00;96048.19;5034086;28;20056;-61
2022/01/27 01:51:06;;;;;;;69.82;12.85;;;;;;;-5.30;100.00;96034.72;5015461;28;20021;-61
2022/01/27 01:53:32;;;;;;;51.65;11.65;;;;;;;-5.27;100.00;96034.41;5017025;28;20021;-62
2022/01/27 01:56:00;;;;;;;77.15;12.98;;;;;;;-5.26;100.00;96031.66;5033304;28;20100;-62
2022/01/27 01:58:25;;;;;;;84.22;12.30;;;;;;;-5.22;100.00;96031.34;5017439;28;20689;-63
2022/01/27 02:00:54;;;;;;;46.20;11.98;;;;;;;-5.19;100.00;96033.69;5017694;28;20056;-63
2022/01/27 02:03:20;;;;;;;75.72;12.15;;;;;;;-5.18;100.00;96035.34;5034380;28;20029;-62
2022/01/27 02:05:51;;;;;;;89.60;12.48;;;;;;;-5.19;100.00;96028.47;5005148;28;20039;-61
2022/01/27 02:19:14;;;;;;;40.67;11.65;;;;;;;-5.00;100.00;96023.13;5038499;28;20044;-62
2022/01/27 02:22:03;;;;;;;105.97;13.68;;;;;;;-4.99;100.00;96006.53;5020213;28;20631;-62
2022/01/27 02:24:34;;;;;;;99.75;13.55;;;;;;;-4.99;100.00;96016.97;5028156;28;20033;-60
2022/01/27 02:27:01;;;;;;;48.55;12.70;;;;;;;-4.96;100.00;96017.50;5019394;28;20029;-61
2022/01/27 02:29:32;;;;;;;61.85;12.18;;;;;;;-4.92;100.00;96011.97;5038679;28;20029;-62
2022/01/27 02:31:59;;;;;;;94.05;13.00;;;;;;;-4.92;100.00;96009.34;5019820;28;20021;-63
2022/01/27 02:34:25;;;;;;;129.88;13.38;;;;;;;-4.92;100.00;96001.50;5038126;28;20030;-61
2022/01/27 02:36:51;;;;;;;94.93;13.60;;;;;;;-4.91;100.00;95995.31;5037045;28;20504;-63
2022/01/27 02:39:18;;;;;;;104.10;13.20;;;;;;;-4.91;100.00;95992.69;5018859;28;20175;-62
2022/01/27 02:42:16;;;;;;;84.68;13.73;;;;;;;-4.88;100.00;95989.81;5036750;28;20053;-63
2022/01/27 02:44:54;;;;;;;156.55;15.23;;;;;;;-4.85;100.00;95977.25;4990716;28;20056;-61
2022/01/27 02:47:21;;;;;;;66.88;13.23;;;;;;;-4.81;100.00;95983.00;5036732;28;20033;-62
2022/01/27 02:49:47;;;;;;;81.43;13.30;;;;;;;-4.80;100.00;95985.47;5035482;28;20021;-62
2022/01/27 02:52:16;;;;;;;63.20;13.55;;;;;;;-4.77;100.00;95966.91;5027059;28;20030;-63
2022/01/27 02:54:42;;;;;;;191.57;14.82;;;;;;;-144.43;100.00;64487.81;5036969;28;20029;-62
2022/01/27 02:57:08;;;;;;;108.93;12.65;;;;;;;-4.78;100.00;95956.56;5034605;28;20032;-63
2022/01/27 02:59:36;;;;;;;103.75;13.93;;;;;;;-4.79;100.00;95958.38;5015995;28;20116;-61
2022/01/27 03:02:02;;;;;;;92.95;14.05;;;;;;;-4.80;100.00;95961.94;5018514;28;20030;-61
2022/01/27 03:04:37;;;;;;;97.22;13.13;;;;;;;-4.81;100.00;95954.25;5019254;28;20088;-62
2022/01/27 03:07:06;;;;;;;97.65;14.05;;;;;;;-4.81;100.00;95960.31;5035713;28;20021;-61
2022/01/27 03:09:33;;;;;;;157.93;15.05;;;;;;;-4.80;100.00;95961.94;5014751;28;20033;-62
2022/01/27 03:12:02;;;;;;;83.55;13.50;;;;;;;-4.81;100.00;95967.31;5016805;28;20470;-61
2022/01/27 03:14:31;;;;;;;106.03;13.90;;;;;;;-4.82;100.00;95963.91;5021894;28;20488;-62
2022/01/27 03:17:00;;;;;;;120.28;13.43;;;;;;;-4.84;100.00;95968.44;5020866;28;20484;-61
2022/01/27 03:19:29;;;;;;;160.45;14.18;;;;;;;-4.87;100.00;95966.16;5016041;28;20034;-61
2022/01/27 03:21:55;;;;;;;119.60;13.40;;;;;;;-4.87;100.00;95973.97;5017358;28;20026;-62
2022/01/27 03:24:27;;;;;;;173.63;14.32;;;;;;;-4.89;100.00;95975.91;5018199;28;20050;-62
2022/01/27 03:26:56;;;;;;;36.97;11.63;;;;;;;-4.89;100.00;95980.31;5002165;28;20045;-62
2022/01/27 03:29:22;;;;;;;77.95;13.45;;;;;;;-4.93;100.00;95976.34;5018759;28;20029;-62
2022/01/27 03:31:49;;;;;;;113.28;13.60;;;;;;;-4.95;100.00;95979.13;5018169;28;20105;-62
2022/01/27 03:34:17;;;;;;;82.32;12.52;;;;;;;-4.97;100.00;95970.63;5018761;28;20029;-62
2022/01/27 03:36:43;;;;;;;70.53;13.00;;;;;;;-4.97;100.00;95960.97;5019522;28;20029;-62
2022/01/27 03:39:09;;;;;;;87.00;13.45;;;;;;;-4.94;100.00;95954.63;5019861;28;20037;-62
2022/01/27 03:41:39;;;;;;;74.40;13.35;;;;;;;-4.94;100.00;95962.47;5021381;28;20289;-62
2022/01/27 03:44:07;;;;;;;78.97;12.65;;;;;;;-4.92;100.00;95955.31;5021231;28;20026;-62
2022/01/27 03:46:36;;;;;;;75.55;12.57;;;;;;;-4.94;100.00;95952.00;5000888;28;20036;-62
2022/01/27 03:49:04;;;;;;;72.90;11.00;;;;;;;-4.94;100.00;95946.78;5018864;28;20457;-62
2022/01/27 03:51:32;;;;;;;55.67;12.05;;;;;;;-4.95;100.00;95947.75;5016728;28;20025;-61
2022/01/27 03:54:09;;;;;;;46.97;11.75;;;;;;;-4.96;100.00;95946.94;5017456;28;20045;-62
2022/01/27 03:56:34;;;;;;;120.53;12.73;;;;;;;-4.97;100.00;95947.91;5023902;28;20096;-62
2022/01/27 03:59:00;;;;;;;44.42;10.52;;;;;;;-5.03;100.00;95947.69;5017166;28;20030;-62
2022/01/27 04:01:25;;;;;;;91.82;12.85;;;;;;;-4.99;100.00;95952.47;5018679;28;20095;-62
2022/01/27 04:03:55;;;;;;;99.25;13.25;;;;;;;-4.96;100.00;95946.94;5035459;28;20029;-61
2022/01/27 04:06:30;;;;;;;135.68;13.82;;;;;;;-4.98;100.00;95950.69;5037484;28;20049;-62
2022/01/27 04:08:56;;;;;;;117.68;14.48;;;;;;;-4.96;100.00;95949.56;5034565;28;20037;-62
2022/01/27 04:11:21;;;;;;;52.97;12.55;;;;;;;-4.93;100.00;95945.00;5016505;28;20022;-61
2022/01/27 04:13:46;;;;;;;41.53;11.32;;;;;;;-4.96;100.00;95941.72;5017437;28;20061;-61
2022/01/27 04:16:12;;;;;;;53.58;13.32;;;;;;;-4.93;100.00;95937.97;4999905;28;20022;-61
2022/01/27 04:18:45;;;;;;;103.68;13.13;;;;;;;-4.92;100.00;95942.22;5017157;28;20018;-61
2022/01/27 04:21:11;;;;;;;48.22;12.07;;;;;;;-4.90;100.00;95948.13;5019386;28;20018;-59
2022/01/27 04:23:36;;;;;;;75.13;12.57;;;;;;;-4.88;100.00;95934.94;5037923;28;20032;-60
2022/01/27 04:26:04;;;;;;;80.40;13.95;;;;;;;-4.88;100.00;95942.78;5037372;28;20482;-62
2022/01/27 04:28:32;;;;;;;103.95;13.70;;;;;;;-4.88;100.00;95938.38;5021585;28;20581;-61
2022/01/27 04:31:03;;;;;;;70.18;13.65;;;;;;;-4.88;100.00;95943.59;5019127;28;20021;-62
2022/01/27 04:33:31;;;;;;;112.47;13.15;;;;;;;-4.94;100.00;95938.13;5031252;28;20029;-61
2022/01/27 04:36:10;;;;;;;68.60;11.48;;;;;;;-4.97;100.00;95934.84;5026880;28;20018;-62
2022/01/27 04:41:19;;;;;;;65.53;12.45;;;;;;;-5.05;100.00;95939.16;5031524;28;20041;-62
2022/01/27 04:43:54;;;;;;;45.17;11.73;;;;;;;-5.06;100.00;95938.34;5021254;28;20037;-60
2022/01/27 04:46:36;;;;;;;78.78;12.52;;;;;;;-5.07;100.00;95934.09;5016874;28;20025;-61
2022/01/27 04:49:07;;;;;;;39.33;11.88;;;;;;;-5.07;100.00;95931.47;5020122;28;20037;-62
2022/01/27 04:51:32;;;;;;;28.45;11.85;;;;;;;-5.06;100.00;95927.91;5036665;28;20021;-61
2022/01/27 04:54:14;;;;;;;38.97;11.57;;;;;;;-5.04;100.00;95935.59;5020623;28;20026;-61
2022/01/27 04:56:41;;;;;;;80.40;12.25;;;;;;;-5.01;100.00;95935.28;5037077;28;20059;-61
2022/01/27 04:59:14;;;;;;;69.68;12.00;;;;;;;-5.08;100.00;95929.84;5021728;28;20028;-61
2022/01/27 05:01:46;;;;;;;72.28;12.50;;;;;;;-5.13;100.00;95937.28;5017280;28;20054;-62
2022/01/27 05:04:16;;;;;;;90.55;12.50;;;;;;;-5.14;100.00;95945.28;5035787;28;20032;-61
2022/01/27 05:06:47;;;;;;;52.50;11.75;;;;;;;-5.11;100.00;95950.19;5037519;28;20044;-63
2022/01/27 05:09:13;;;;;;;87.35;12.48;;;;;;;-5.15;100.00;95957.50;5031043;28;20049;-61
2022/01/27 05:11:50;;;;;;;66.45;12.40;;;;;;;-5.14;100.00;95953.09;5017684;28;20025;-61
2022/01/27 05:14:24;;;;;;;57.35;11.65;;;;;;;-5.13;100.00;95947.72;5015007;28;20737;-62
2022/01/27 05:16:50;;;;;;;48.60;12.30;;;;;;;-5.11;100.00;95951.00;5016545;28;20415;-61
2022/01/27 05:19:16;;;;;;;54.45;13.82;;;;;;;-5.07;100.00;95952.38;5017423;28;20034;-61
2022/01/27 05:21:42;;;;;;;89.70;13.35;;;;;;;-5.06;100.00;95953.19;5032422;28;20100;-61
2022/01/27 05:24:10;;;;;;;62.33;12.65;;;;;;;-5.08;100.00;95944.69;5019460;28;20034;-61
2022/01/27 05:26:38;;;;;;;54.40;13.52;;;;;;;-5.04;100.00;95944.25;5014097;28;20038;-62
2022/01/27 05:29:12;;;;;;;110.60;14.45;;;;;;;-5.05;100.00;95945.22;5016953;28;20434;-61
2022/01/27 05:31:37;;;;;;;37.33;12.55;;;;;;;-5.03;100.00;95952.91;5017518;28;20038;-62
2022/01/27 05:34:04;;;;;;;112.82;14.55;;;;;;;-5.00;100.00;95949.97;5002560;28;20052;-62
2022/01/27 05:36:30;;;;;;;63.60;13.98;;;;;;;-5.00;100.00;95953.41;5018693;28;20057;-61
2022/01/27 05:38:55;;;;;;;64.32;15.45;;;;;;;-4.97;100.00;95939.25;5034258;28;20085;-54
2022/01/27 05:41:24;;;;;;;60.58;14.65;;;;;;;-4.94;100.00;95933.72;5010808;28;20417;-52
2022/01/27 05:43:49;;;;;;;114.80;15.60;;;;;;;-4.90;100.00;95934.25;5011233;28;20030;-57
2022/01/27 05:46:20;;;;;;;39.15;13.77;;;;;;;-4.88;100.00;95929.72;5009057;28;20037;-54
2022/01/27 05:48:49;;;;;;;86.93;15.57;;;;;;;-4.91;100.00;95915.13;5011043;28;20028;-53
2022/01/27 05:51:17;;;;;;;60.85;16.20;;;;;;;-4.89;100.00;95925.44;5009627;28;20054;-55
2022/01/27 05:53:43;;;;;;;38.63;14.43;;;;;;;-4.87;100.00;95918.28;5012194;28;20025;-52
2022/01/27 05:56:08;;;;;;;34.08;14.70;;;;;;;-4.84;100.00;95920.59;5009361;28;20033;-52
2022/01/27 05:58:39;;;;;;;29.20;14.48;;;;;;;-4.83;100.00;95911.78;5011826;28;20022;-53
2022/01/27 06:01:04;;;;;;;46.67;14.43;;;;;;;-4.83;100.00;95914.41;5009748;28;20512;-53
2022/01/27 06:03:36;;;;;;;33.05;14.35;;;;;;;-4.84;100.00;95912.75;5010485;28;20032;-57
2022/01/27 06:06:08;;;;;;;73.68;13.07;;;;;;;-4.97;100.00;95900.06;5009798;28;20026;-57
2022/01/27 06:08:33;;;;;;;60.57;13.60;;;;;;;-5.03;100.00;95895.44;5010287;28;20026;-53
2022/01/27 06:10:59;;;;;;;69.18;12.88;;;;;;;-5.08;100.00;95910.75;5011111;28;20025;-53
2022/01/27 06:13:25;;;;;;;105.13;13.70;;;;;;;-5.09;100.00;95907.31;5010035;28;20030;-54
2022/01/27 06:15:51;;;;;;;109.15;14.05;;;;;;;-5.12;100.00;95902.34;5009556;28;20026;-57
2022/01/27 06:18:16;;;;;;;200.20;15.93;;;;;;;-5.16;100.00;95906.25;5011059;28;20032;-57
2022/01/27 06:20:51;;;;;;;56.05;12.63;;;;;;;-5.14;100.00;95906.09;5009967;28;20370;-55
2022/01/27 06:23:19;;;;;;;78.97;13.75;;;;;;;-5.13;100.00;95899.91;5004490;28;20534;-53
2022/01/27 06:25:44;;;;;;;59.17;13.55;;;;;;;-5.14;100.00;95898.25;4998220;28;20034;-56
2022/01/27 06:28:13;;;;;;;66.43;13.27;;;;;;;-5.13;100.00;95894.69;5010532;28;20040;-57
2022/01/27 06:30:38;;;;;;;75.03;14.73;;;;;;;-5.12;100.00;95902.34;5010941;28;20532;-55
2022/01/27 06:33:04;;;;;;;37.90;13.98;;;;;;;-5.09;100.00;95903.88;4996697;28;20045;-55
2022/01/27 06:35:30;;;;;;;116.38;14.23;;;;;;;-5.10;100.00;95902.22;5010791;28;20026;-54
2022/01/27 06:37:56;;;;;;;50.67;13.25;;;;;;;-5.10;100.00;95896.97;5007174;28;20041;-55
2022/01/27 06:40:21;;;;;;;41.67;13.90;;;;;;;-5.09;100.00;95904.69;5017549;28;20052;-54
2022/01/27 06:42:47;;;;;;;66.68;14.23;;;;;;;-5.08;100.00;95908.13;5012906;28;20031;-57
2022/01/27 06:45:12;;;;;;;226.20;15.52;;;;;;;-5.10;100.00;95905.66;4957525;28;20581;-58
2022/01/27 06:47:38;;;;;;;101.28;14.18;;;;;;;-5.11;100.00;95917.06;5009492;28;20485;-56
2022/01/27 06:50:04;;;;;;;50.35;12.55;;;;;;;-5.12;100.00;95912.00;5011172;28;20120;-57
2022/01/27 06:52:29;;;;;;;117.88;14.02;;;;;;;-5.18;100.00;95913.41;5021950;28;20021;-55
2022/01/27 06:54:56;;;;;;;114.63;14.57;;;;;;;-5.19;100.00;95922.22;5024131;28;20044;-56
2022/01/27 06:57:23;;;;;;;195.52;14.82;;;;;;;-5.22;100.00;95919.06;5012966;28;20022;-52
2022/01/27 06:59:48;;;;;;;106.10;13.68;;;;;;;-5.26;100.00;95913.31;5004482;28;20033;-54
2022/01/27 07:02:14;;;;;;;122.05;13.18;;;;;;;-5.30;100.00;95918.03;5016402;28;20027;-54
2022/01/27 07:04:39;;;;;;;216.65;16.83;;;;;;;-5.25;100.00;95920.19;5017260;28;20079;-54
2022/01/27 07:07:05;;;;;;;54.70;12.98;;;;;;;-5.21;100.00;95918.94;5016886;28;20045;-56
2022/01/27 07:09:30;;;;;;;67.18;13.45;;;;;;;-5.16;100.00;95923.72;5013003;28;20026;-56
2022/01/27 07:11:55;;;;;;;52.47;13.75;;;;;;;-5.15;100.00;95923.56;5010233;28;20029;-57
2022/01/27 07:14:21;;;;;;;73.78;12.85;;;;;;;-5.12;100.00;95920.66;5012607;28;20121;-57
2022/01/27 07:16:46;;;;;;;56.90;13.38;;;;;;;-5.16;100.00;95927.13;5027675;28;20053;-55
2022/01/27 07:19:12;;;;;;;213.35;16.35;;;;;;;-5.22;100.00;95926.91;5013518;28;20061;-54
2022/01/27 07:21:40;;;;;;;200.32;16.25;;;;;;;-5.23;100.00;95923.47;5015149;28;20088;-52
2022/01/27 07:24:05;;;;;;;43.63;12.57;;;;;;;-5.19;100.00;95929.22;5014853;28;20030;-56
2022/01/27 07:26:31;;;;;;;59.70;14.85;;;;;;;-5.15;100.00;95925.34;5014610;28;20658;-53
2022/01/27 07:28:56;;;;;;;119.25;14.27;;;;;;;-5.14;100.00;95927.00;5032959;28;20032;-55
2022/01/27 07:31:22;;;;;;;117.00;15.68;;;;;;;-5.18;100.00;95926.47;5016634;28;20024;-55
2022/01/27 07:33:48;;;;;;;49.78;14.90;;;;;;;-5.16;100.00;95926.31;5033934;28;20025;-54
2022/01/27 07:36:15;;;;;;;78.57;16.00;;;;;;;-5.10;100.00;95923.09;5016344;28;20090;-53
2022/01/27 07:38:41;;;;;;;31.05;13.95;;;;;;;-5.03;100.00;95921.56;5015707;28;20017;-52
2022/01/27 07:41:06;;;;;;;58.97;15.57;;;;;;;-4.96;100.00;95917.38;5034182;28;20038;-59
2022/01/27 07:43:31;;;;;;;60.92;14.85;;;;;;;-4.90;100.00;95921.19;5034284;28;20025;-53
2022/01/27 07:45:59;;;;;;;105.07;15.95;;;;;;;-4.88;100.00;95927.94;5032674;28;20040;-54
2022/01/27 07:48:25;;;;;;;35.30;15.70;;;;;;;-4.87;100.00;95921.72;5021520;28;20487;-57
2022/01/27 07:50:50;;;;;;;81.10;16.60;;;;;;;-4.84;100.00;95931.03;5015550;28;20032;-55
2022/01/27 07:53:16;;;;;;;45.47;16.75;;;;;;;-4.80;100.00;95922.75;5000411;28;20025;-54
2022/01/27 07:55:41;;;;;;;89.47;15.98;;;;;;;-4.80;100.00;95927.16;5033359;28;20053;-57
2022/01/27 07:58:06;;;;;;;57.38;16.65;;;;;;;-4.79;100.00;95932.22;5022275;28;20036;-54
2022/01/27 08:00:32;;;;;;;50.35;16.25;;;;;;;-4.76;100.00;95928.53;5015977;28;20497;-54
2022/01/27 08:02:59;;;;;;;38.28;14.73;;;;;;;-4.73;100.00;95921.19;5033104;28;20075;-54
2022/01/27 08:05:25;;;;;;;36.90;16.52;;;;;;;-4.69;100.00;95930.34;5015441;28;20068;-54
2022/01/27 08:07:50;;;;;;;43.72;15.93;;;;;;;-4.65;100.00;95930.09;5015969;28;20464;-57
2022/01/27 08:10:16;;;;;;;38.10;16.20;;;;;;;-4.60;100.00;95930.44;5032646;28;20028;-54
2022/01/27 08:12:42;;;;;;;49.97;15.73;;;;;;;-4.60;100.00;95930.44;5033621;28;20056;-58
2022/01/27 08:15:11;;;;;;;50.13;14.20;;;;;;;-4.57;100.00;95923.09;4995095;28;20033;-56
2022/01/27 08:17:37;;;;;;;36.13;15.05;;;;;;;-4.51;100.00;95924.31;5020876;28;20373;-57
2022/01/27 08:20:05;;;;;;;37.75;16.15;;;;;;;-4.46;100.00;95924.66;5032791;28;20079;-54
2022/01/27 08:22:32;;;;;;;34.33;14.77;;;;;;;-4.43;100.00;95919.97;4999388;28;20046;-53
2022/01/27 08:24:57;;;;;;;58.25;15.55;;;;;;;-4.42;100.00;95919.00;5032930;28;20033;-54
2022/01/27 08:27:27;;;;;;;44.72;16.40;;;;;;;-4.41;100.00;95925.88;5031524;28;20025;-57
2022/01/27 08:29:58;;;;;;;47.38;15.60;;;;;;;-4.40;100.00;95919.66;5032926;28;20108;-54
2022/01/27 08:32:33;;;;;;;63.58;15.25;;;;;;;-4.40;100.00;95916.22;5032637;28;20025;-54
2022/01/27 08:34:58;;;;;;;44.42;16.23;;;;;;;-4.37;100.00;95918.53;5033048;28;20048;-59
2022/01/27 08:37:26;;;;;;;40.08;15.90;;;;;;;-4.30;100.00;95911.72;5014948;28;20030;-57
2022/01/27 08:39:51;;;;;;;41.67;16.05;;;;;;;-4.27;100.00;95921.88;5028691;28;20111;-61
2022/01/27 08:42:17;;;;;;;51.83;16.15;;;;;;;-4.21;100.00;95925.69;5013254;28;20025;-59
2022/01/27 08:44:42;;;;;;;75.55;19.13;;;;;;;-4.18;100.00;95925.38;5012321;28;20061;-57
2022/01/27 08:47:10;;;;;;;44.38;16.42;;;;;;;-4.18;100.00;95918.34;5012952;28;20156;-58
2022/01/27 08:49:36;;;;;;;47.47;17.23;;;;;;;-4.13;100.00;95925.72;5013199;28;20026;-58
2022/01/27 08:52:02;;;;;;;37.88;16.98;;;;;;;-4.08;100.00;95928.72;5014200;28;20033;-53
2022/01/27 08:54:28;;;;;;;48.00;18.05;;;;;;;-4.05;100.00;95928.41;5032760;28;20721;-54
2022/01/27 08:56:53;;;;;;;42.83;17.55;;;;;;;-3.99;100.00;95924.34;5031144;28;20108;-56
2022/01/27 08:59:19;;;;;;;41.38;17.55;;;;;;;-3.99;100.00;95926.97;5014982;28;20021;-59
2022/01/27 09:01:45;;;;;;;40.53;17.05;;;;;;;-3.96;100.00;95926.66;5015162;28;20114;-59
2022/01/27 09:04:10;;;;;;;38.50;17.75;;;;;;;-3.88;100.00;95921.47;5029721;28;20034;-57
2022/01/27 09:06:36;;;;;;;35.20;16.30;;;;;;;-3.83;100.00;95917.41;5012493;28;20032;-60
2022/01/27 09:09:03;;;;;;;38.58;17.73;;;;;;;-3.74;100.00;95909.59;5019566;28;20400;-60
2022/01/27 09:11:30;;;;;;;36.95;17.48;;;;;;;-3.70;100.00;95909.13;5012870;28;20113;-55
2022/01/27 09:13:56;;;;;;;40.47;18.52;;;;;;;-3.63;100.00;95904.91;5010661;28;20025;-65
2022/01/27 09:16:26;;;;;;;40.53;18.83;;;;;;;-3.54;100.00;95903.97;5030401;28;20120;-53
2022/01/27 09:18:51;;;;;;;40.80;17.88;;;;;;;-3.50;100.00;95907.91;5016651;28;20099;-57
2022/01/27 09:21:22;;;;;;;41.80;19.02;;;;;;;-3.43;100.00;95907.28;5013209;28;20540;-58
2022/01/27 09:23:48;;;;;;;40.63;18.30;;;;;;;-3.38;100.00;95897.13;5011263;28;20535;-54
2022/01/27 09:26:38;;;;;;;41.08;18.45;;;;;;;-3.35;100.00;95902.06;5014154;28;20038;-57
2022/01/27 09:28:59;;;;;;;38.17;17.85;;;;;;;-3.29;100.00;95904.03;5012255;28;20061;-59
2022/01/27 09:31:24;;;;;;;38.78;18.75;;;;;;;-3.40;100.00;95899.91;5022980;28;20042;-62
2022/01/27 09:33:50;;;;;;;41.90;19.42;;;;;;;-3.35;100.00;95902.06;5008946;28;20025;-60
2022/01/27 09:36:15;;;;;;;39.97;18.25;;;;;;;-3.14;100.00;95892.00;5002638;28;20555;-56
2022/01/27 09:38:41;;;;;;;39.53;18.85;;;;;;;-3.07;100.00;95887.72;5007530;28;20034;-61
2022/01/27 09:41:18;;;;;;;42.20;19.13;;;;;;;-3.05;100.00;95888.38;5028036;28;20515;-62
2022/01/27 09:43:43;;;;;;;37.75;18.55;;;;;;;-3.13;100.00;95882.31;5024340;28;20036;-55
2022/01/27 09:46:11;;;;;;;40.17;18.05;;;;;;;-3.10;100.00;95893.28;5013528;28;20029;-58
2022/01/27 09:48:40;;;;;;;39.35;17.83;;;;;;;-2.99;100.00;95890.38;5012107;28;20026;-63
2022/01/27 09:53:52;;;;;;;36.65;18.02;;;;;;;-2.88;100.00;95893.66;5025033;28;20092;-62
2022/01/27 09:56:18;;;;;;;36.55;18.50;;;;;;;-2.79;100.00;95887.44;5014113;28;20018;-64
2022/01/27 09:58:44;;;;;;;39.20;18.38;;;;;;;-2.78;100.00;95883.84;5028184;28;20108;-61
2022/01/27 10:01:09;;;;;;;35.33;17.73;;;;;;;-2.72;100.00;95886.63;5010900;28;20499;-65
2022/01/27 10:03:52;;;;;;;34.10;17.38;;;;;;;-2.59;100.00;95886.16;5013686;28;20432;-61
2022/01/27 10:06:18;;;;;;;39.63;19.42;;;;;;;-2.45;100.00;95875.00;5019827;28;20032;-62
2022/01/27 10:08:43;;;;;;;38.20;17.02;;;;;;;-2.34;100.00;95869.41;5026822;28;20049;-63
2022/01/27 10:11:17;;;;;;;38.88;18.63;;;;;;;-2.17;100.00;95858.88;4999699;28;20029;-64
2022/01/27 10:13:45;;;;;;;39.80;19.27;;;;;;;-2.00;100.00;95855.25;5019505;28;20037;-65
2022/01/27 10:16:30;;;;;;;41.40;19.58;;;;;;;-1.84;100.00;95849.97;5024664;28;20104;-65
2022/01/27 10:19:06;;;;;;;38.13;18.10;;;;;;;-1.74;100.00;95852.34;5019765;28;20026;-66
2022/01/27 10:21:32;;;;;;;38.10;17.77;;;;;;;-1.66;100.00;95851.50;5023277;28;20025;-65
2022/01/27 10:24:14;;;;;;;35.42;17.10;;;;;;;-1.59;100.00;95847.22;5010178;28;20101;-64
2022/01/27 10:26:44;;;;;;;29.10;15.15;;;;;;;-1.52;100.00;95845.53;5017048;28;20068;-66
2022/01/27 10:29:16;;;;;;;33.70;16.73;;;;;;;-1.39;100.00;95851.09;5028598;28;20036;-60
2022/01/27 10:31:42;;;;;;;29.40;15.63;;;;;;;-1.29;100.00;95843.81;5021672;28;20042;-63
2022/01/27 10:34:10;;;;;;;30.85;16.00;;;;;;;-1.23;100.00;95852.78;5021951;28;20055;-59
2022/01/27 10:36:44;;;;;;;30.75;15.95;;;;;;;-1.13;100.00;95842.88;5003433;28;20432;-60
2022/01/27 10:39:20;;;;;;;32.65;15.98;;;;;;;-1.09;100.00;95830.19;5000386;28;20022;-63
2022/01/27 10:42:00;;;;;;;37.88;16.83;;;;;;;-1.03;100.00;95840.03;5009816;28;20033;-59
2022/01/27 10:44:37;;;;;;;30.80;15.48;;;;;;;-0.92;100.00;95837.00;5027988;28;20058;-57
2022/01/27 10:47:19;;;;;;;28.73;14.85;;;;;;;-0.78;100.00;95830.16;4995316;28;20369;-61
2022/01/27 10:49:53;;;;;;;28.92;14.88;;;;;;;-0.77;100.00;95821.25;5024147;28;20404;-61
2022/01/27 10:52:32;;;;;;;30.10;15.77;;;;;;;-0.69;100.00;95819.38;5009919;28;20024;-65
2022/01/27 10:55:00;;;;;;;30.00;15.60;;;;;;;-0.59;100.00;95825.22;5010812;28;20037;-63
2022/01/27 10:57:27;;;;;;;35.22;16.73;;;;;;;-0.45;100.00;95807.00;5021638;28;20025;-60
2022/01/27 11:00:07;;;;;;;29.55;15.82;;;;;;;-0.39;100.00;95806.31;5023400;28;20035;-62
2022/01/27 11:02:32;;;;;;;29.52;15.30;;;;;;;-0.18;100.00;95810.88;4993102;28;20496;-62
2022/01/27 11:04:58;;;;;;;28.38;14.68;;;;;;;-0.06;100.00;95812.88;5019501;28;20026;-58
2022/01/27 11:07:25;;;;;;;28.85;15.60;;;;;;;0.08;100.00;95803.34;5011146;28;20026;-61
2022/01/27 11:09:58;;;;;;;30.17;15.50;;;;;;;0.33;100.00;95792.53;5008910;28;20093;-59
2022/01/27 11:12:24;;;;;;;32.97;14.85;;;;;;;0.59;100.00;95777.03;5011244;28;20025;-61
2022/01/27 11:14:50;;;;;;;29.42;14.93;;;;;;;0.85;100.00;95760.66;5010699;28;20029;-65
2022/01/27 11:17:20;;;;;;;25.88;14.30;;;;;;;1.10;100.00;95748.72;5029109;28;20037;-64
2022/01/27 11:27:37;;;;;;;26.73;12.82;;;;;;;1.60;100.00;95720.47;5030222;28;20503;-64
2022/01/27 11:30:17;;;;;;;26.48;13.30;;;;;;;1.73;100.00;95709.16;5012809;28;20029;-65
2022/01/27 11:32:46;;;;;;;24.15;11.88;;;;;;;1.86;100.00;95700.53;5029377;28;20032;-65
2022/01/27 11:35:23;;;;;;;27.15;12.68;;;;;;;2.25;100.00;95689.28;5029917;28;20037;-64
2022/01/27 11:37:57;;;;;;;25.67;12.63;;;;;;;2.51;100.00;95678.81;5030608;28;20388;-65
2022/01/27 11:40:42;;;;;;;24.08;11.98;;;;;;;2.70;100.00;95663.97;5017289;23;20145;-66
2022/01/27 11:43:16;;;;;;;24.10;13.00;;;;;;;2.91;100.00;95652.41;4979196;28;20093;-65
2022/01/27 11:45:46;;;;;;;22.45;12.45;;;;;;;3.08;100.00;95635.13;4993272;28;20026;-66
2022/01/27 11:48:15;;;;;;;21.13;11.80;;;;;;;3.16;100.00;95631.44;4982328;28;20030;-66
2022/01/27 11:53:45;;;;;;;24.33;11.57;;;;;;;3.01;100.00;95614.94;4979452;28;20135;-66
2022/01/27 11:56:30;;;;;;;20.92;11.35;;;;;;;2.82;100.00;95606.84;4991006;28;20056;-66
2022/01/27 11:58:55;;;;;;;21.83;11.82;;;;;;;2.85;100.00;95605.59;4991124;28;20397;-67
2022/01/27 12:01:37;;;;;;;20.95;11.98;;;;;;;2.81;100.00;95599.06;4993176;28;20029;-66
2022/01/27 12:04:02;;;;;;;21.52;11.52;;;;;;;2.68;100.00;95577.94;4992444;28;20038;-66
2022/01/27 12:06:32;;;;;;;21.40;11.88;;;;;;;2.70;100.00;95575.88;4992776;28;20516;-66
2022/01/27 12:09:19;;;;;;;23.77;12.30;;;;;;;3.06;100.00;95578.13;4984252;28;20038;-66
2022/01/27 12:11:50;;;;;;;20.27;12.18;;;;;;;3.31;100.00;95565.03;4989736;28;20022;-66